Terminal Aerodrome Forecast
Issued by NWS Mt. Holly, NJ

Home | Current Version | Previous Version | Text Only | Print | Product List | Glossary On
Versions: 1 2 3 4 5 6 7 8 9 10 11 12 13 14 15 16 17
000
FTUS41 KPHI 271736
TAFTTN
TAF
KTTN 271736Z 2718/2818 21005KT P6SM OVC006
     FM272100 24006KT P6SM BKN015
     FM280300 VRB03KT 3SM BR OVC007
     FM280600 VRB03KT 1SM BR OVC003
     FM281000 VRB05KT 1SM -SHRA BR OVC003
     FM281500 VRB05KT 4SM BR OVC007=

USA.gov is the U.S. government's official web portal to all federal, state and local government web resources and services.